Palmeira d'Oeste, Brazil
Current Conditions -  °F | °C
As of 11:00 AM on Sunday 21 Dec 2014 (Local Time) from SBSR Reporting Station
Overcast Overcast  
Wind Chill: 79°   Ceiling: 1500
Heat Index: 81°   Visibility: 6mi
Dew Point: 68°   Wind: 8mph
Humidity: 69%   Direction: 360°N
Pressure: 29.94"   Gusts: NA
Location:  20.42°S, 50.76°W
Report Text: SBSR 211300Z 36007KT 9999 OVC015 26/20 Q1014
Loading
Personal Weather Stations






























Interactive Weather Map New forecast layout! Learn more

10-Day Weather Forecast

Advertisements
Track Severe Weather on mobile